Terminal Aerodrome Forecast
Issued by NWS Sterling, VA

Current Version | Previous Version | Graphics & Text | Print | Product List | Glossary On
Versions: 1 2 3 4 5 6 7 8 9 10 11 12 13 14 15 16 17 18 19 20 21 22 23 24 25
493
FTUS41 KLWX 251123
TAFIAD
TAF
KIAD 251123Z 2512/2618 18005KT P6SM SCT120 BKN210
     FM251700 21006KT P6SM BKN040
     FM260100 14004KT P6SM OVC030
     FM260400 12005KT P6SM OVC015
     FM260600 11006KT P6SM OVC008
     FM261000 11006KT P6SM OVC003
     FM261200 10006KT 4SM -DZ BKN003=

USA.gov is the U.S. government's official web portal to all federal, state and local government web resources and services.